sensor_id;sensor_type;location;lat;lon;timestamp;P1;durP1;ratioP1;P2;durP2;ratioP2
73678;SDS011;61978;52.742;16.962;2022-08-21T00:01:22;9.18;;;6.08;;
73678;SDS011;61978;52.742;16.962;2022-08-21T00:03:50;7.90;;;6.60;;
73678;SDS011;61978;52.742;16.962;2022-08-21T00:06:17;7.25;;;6.55;;
73678;SDS011;61978;52.742;16.962;2022-08-21T00:08:46;7.75;;;6.67;;
73678;SDS011;61978;52.742;16.962;2022-08-21T00:11:13;8.03;;;7.05;;
73678;SDS011;61978;52.742;16.962;2022-08-21T00:13:40;6.95;;;6.25;;
73678;SDS011;61978;52.742;16.962;2022-08-21T00:16:07;9.20;;;6.97;;
73678;SDS011;61978;52.742;16.962;2022-08-21T00:18:33;6.92;;;5.42;;
73678;SDS011;61978;52.742;16.962;2022-08-21T00:21:00;7.78;;;6.42;;
73678;SDS011;61978;52.742;16.962;2022-08-21T00:23:26;8.93;;;6.37;;
73678;SDS011;61978;52.742;16.962;2022-08-21T00:25:53;7.75;;;6.87;;
73678;SDS011;61978;52.742;16.962;2022-08-21T00:28:19;7.08;;;6.22;;
73678;SDS011;61978;52.742;16.962;2022-08-21T00:30:45;10.28;;;6.78;;
73678;SDS011;61978;52.742;16.962;2022-08-21T00:33:12;9.93;;;6.67;;
73678;SDS011;61978;52.742;16.962;2022-08-21T00:35:40;9.70;;;5.47;;
73678;SDS011;61978;52.742;16.962;2022-08-21T00:38:08;5.70;;;5.20;;
73678;SDS011;61978;52.742;16.962;2022-08-21T00:40:41;7.40;;;6.12;;
73678;SDS011;61978;52.742;16.962;2022-08-21T00:43:22;6.45;;;5.85;;
73678;SDS011;61978;52.742;16.962;2022-08-21T00:45:50;7.10;;;6.03;;
73678;SDS011;61978;52.742;16.962;2022-08-21T00:48:19;9.93;;;6.30;;
73678;SDS011;61978;52.742;16.962;2022-08-21T00:53:39;8.73;;;6.67;;
73678;SDS011;61978;52.742;16.962;2022-08-21T00:56:08;9.55;;;6.80;;
73678;SDS011;61978;52.742;16.962;2022-08-21T00:58:36;8.00;;;7.20;;
73678;SDS011;61978;52.742;16.962;2022-08-21T01:01:06;13.50;;;8.00;;
73678;SDS011;61978;52.742;16.962;2022-08-21T01:03:33;11.88;;;8.30;;
73678;SDS011;61978;52.742;16.962;2022-08-21T01:06:01;11.53;;;8.73;;
73678;SDS011;61978;52.742;16.962;2022-08-21T01:08:30;12.18;;;9.65;;
73678;SDS011;61978;52.742;16.962;2022-08-21T01:10:58;16.77;;;10.63;;
73678;SDS011;61978;52.742;16.962;2022-08-21T01:13:28;10.70;;;8.48;;
73678;SDS011;61978;52.742;16.962;2022-08-21T01:15:58;13.83;;;9.85;;
73678;SDS011;61978;52.742;16.962;2022-08-21T01:18:26;12.07;;;9.58;;
73678;SDS011;61978;52.742;16.962;2022-08-21T01:21:10;14.93;;;9.95;;
73678;SDS011;61978;52.742;16.962;2022-08-21T01:23:37;17.82;;;10.90;;
73678;SDS011;61978;52.742;16.962;2022-08-21T01:26:06;11.05;;;9.40;;
73678;SDS011;61978;52.742;16.962;2022-08-21T01:28:36;15.90;;;11.57;;
73678;SDS011;61978;52.742;16.962;2022-08-21T01:31:06;15.03;;;10.78;;
73678;SDS011;61978;52.742;16.962;2022-08-21T01:33:35;14.43;;;11.73;;
73678;SDS011;61978;52.742;16.962;2022-08-21T01:36:03;12.28;;;11.08;;
73678;SDS011;61978;52.742;16.962;2022-08-21T01:38:30;15.15;;;11.20;;
73678;SDS011;61978;52.742;16.962;2022-08-21T01:40:56;12.85;;;10.03;;
73678;SDS011;61978;52.742;16.962;2022-08-21T01:43:23;17.50;;;11.70;;
73678;SDS011;61978;52.742;16.962;2022-08-21T01:45:49;16.00;;;12.03;;
73678;SDS011;61978;52.742;16.962;2022-08-21T01:48:17;15.72;;;11.03;;
73678;SDS011;61978;52.742;16.962;2022-08-21T01:50:44;17.73;;;12.07;;
73678;SDS011;61978;52.742;16.962;2022-08-21T01:53:10;15.32;;;10.85;;
73678;SDS011;61978;52.742;16.962;2022-08-21T01:55:38;20.57;;;12.20;;
73678;SDS011;61978;52.742;16.962;2022-08-21T01:58:04;16.07;;;12.28;;
73678;SDS011;61978;52.742;16.962;2022-08-21T02:00:31;12.53;;;11.03;;
73678;SDS011;61978;52.742;16.962;2022-08-21T02:02:58;16.40;;;11.28;;
73678;SDS011;61978;52.742;16.962;2022-08-21T02:05:25;15.72;;;12.18;;
73678;SDS011;61978;52.742;16.962;2022-08-21T02:07:52;18.12;;;11.43;;
73678;SDS011;61978;52.742;16.962;2022-08-21T02:10:21;14.93;;;9.73;;
73678;SDS011;61978;52.742;16.962;2022-08-21T02:12:52;16.82;;;12.25;;
73678;SDS011;61978;52.742;16.962;2022-08-21T02:15:19;20.50;;;13.08;;
73678;SDS011;61978;52.742;16.962;2022-08-21T02:17:48;15.30;;;12.07;;
73678;SDS011;61978;52.742;16.962;2022-08-21T02:20:18;20.23;;;10.60;;
73678;SDS011;61978;52.742;16.962;2022-08-21T02:22:46;15.55;;;12.45;;
73678;SDS011;61978;52.742;16.962;2022-08-21T02:25:13;17.57;;;12.60;;
73678;SDS011;61978;52.742;16.962;2022-08-21T02:27:40;18.32;;;12.82;;
73678;SDS011;61978;52.742;16.962;2022-08-21T02:30:11;21.15;;;14.15;;
73678;SDS011;61978;52.742;16.962;2022-08-21T02:32:39;22.90;;;13.20;;
73678;SDS011;61978;52.742;16.962;2022-08-21T02:35:06;22.10;;;14.13;;
73678;SDS011;61978;52.742;16.962;2022-08-21T02:37:34;19.37;;;14.65;;
73678;SDS011;61978;52.742;16.962;2022-08-21T02:40:02;20.70;;;12.90;;
73678;SDS011;61978;52.742;16.962;2022-08-21T02:42:29;18.02;;;13.15;;
73678;SDS011;61978;52.742;16.962;2022-08-21T02:44:56;18.37;;;13.93;;
73678;SDS011;61978;52.742;16.962;2022-08-21T02:47:23;20.10;;;12.37;;
73678;SDS011;61978;52.742;16.962;2022-08-21T02:49:50;21.90;;;14.45;;
73678;SDS011;61978;52.742;16.962;2022-08-21T02:52:18;15.65;;;12.30;;
73678;SDS011;61978;52.742;16.962;2022-08-21T02:54:45;14.85;;;11.60;;
73678;SDS011;61978;52.742;16.962;2022-08-21T02:57:11;14.80;;;10.53;;
73678;SDS011;61978;52.742;16.962;2022-08-21T02:59:38;13.28;;;10.23;;
73678;SDS011;61978;52.742;16.962;2022-08-21T03:02:06;15.30;;;9.80;;
73678;SDS011;61978;52.742;16.962;2022-08-21T03:04:33;12.78;;;8.98;;
73678;SDS011;61978;52.742;16.962;2022-08-21T03:06:59;13.32;;;9.20;;
73678;SDS011;61978;52.742;16.962;2022-08-21T03:09:26;11.38;;;10.10;;
73678;SDS011;61978;52.742;16.962;2022-08-21T03:11:52;11.50;;;8.60;;
73678;SDS011;61978;52.742;16.962;2022-08-21T03:14:19;8.55;;;6.17;;
73678;SDS011;61978;52.742;16.962;2022-08-21T03:16:46;11.10;;;8.85;;
73678;SDS011;61978;52.742;16.962;2022-08-21T03:19:13;11.03;;;8.10;;
73678;SDS011;61978;52.742;16.962;2022-08-21T03:21:39;8.93;;;6.65;;
73678;SDS011;61978;52.742;16.962;2022-08-21T03:24:06;9.43;;;6.95;;
73678;SDS011;61978;52.742;16.962;2022-08-21T03:26:32;9.53;;;7.92;;
73678;SDS011;61978;52.742;16.962;2022-08-21T03:29:00;8.78;;;6.50;;
73678;SDS011;61978;52.742;16.962;2022-08-21T03:31:26;8.40;;;7.60;;
73678;SDS011;61978;52.742;16.962;2022-08-21T03:33:55;10.48;;;7.40;;
73678;SDS011;61978;52.742;16.962;2022-08-21T03:36:22;8.40;;;7.37;;
73678;SDS011;61978;52.742;16.962;2022-08-21T03:38:49;6.40;;;5.75;;
73678;SDS011;61978;52.742;16.962;2022-08-21T03:41:16;7.65;;;5.95;;
73678;SDS011;61978;52.742;16.962;2022-08-21T03:43:43;11.30;;;7.62;;
73678;SDS011;61978;52.742;16.962;2022-08-21T03:46:10;11.43;;;7.15;;
73678;SDS011;61978;52.742;16.962;2022-08-21T03:48:37;6.90;;;5.90;;
73678;SDS011;61978;52.742;16.962;2022-08-21T03:51:04;7.62;;;6.00;;
73678;SDS011;61978;52.742;16.962;2022-08-21T03:53:33;11.33;;;6.45;;
73678;SDS011;61978;52.742;16.962;2022-08-21T03:55:59;6.75;;;5.87;;
73678;SDS011;61978;52.742;16.962;2022-08-21T03:58:28;7.97;;;6.20;;
73678;SDS011;61978;52.742;16.962;2022-08-21T04:00:56;7.85;;;6.17;;
73678;SDS011;61978;52.742;16.962;2022-08-21T04:03:25;8.35;;;6.58;;
73678;SDS011;61978;52.742;16.962;2022-08-21T04:05:52;6.70;;;5.62;;
73678;SDS011;61978;52.742;16.962;2022-08-21T04:08:19;6.47;;;5.83;;
73678;SDS011;61978;52.742;16.962;2022-08-21T04:10:46;7.92;;;4.78;;
73678;SDS011;61978;52.742;16.962;2022-08-21T04:13:15;7.67;;;5.22;;
73678;SDS011;61978;52.742;16.962;2022-08-21T04:15:42;7.37;;;5.80;;
73678;SDS011;61978;52.742;16.962;2022-08-21T04:18:08;6.00;;;4.53;;
73678;SDS011;61978;52.742;16.962;2022-08-21T04:20:35;6.08;;;4.97;;
73678;SDS011;61978;52.742;16.962;2022-08-21T04:23:02;5.80;;;4.25;;
73678;SDS011;61978;52.742;16.962;2022-08-21T04:25:30;8.05;;;4.80;;
73678;SDS011;61978;52.742;16.962;2022-08-21T04:27:56;5.90;;;5.25;;
73678;SDS011;61978;52.742;16.962;2022-08-21T04:30:23;4.83;;;4.33;;
73678;SDS011;61978;52.742;16.962;2022-08-21T04:32:51;5.33;;;4.83;;
73678;SDS011;61978;52.742;16.962;2022-08-21T04:35:19;7.25;;;4.83;;
73678;SDS011;61978;52.742;16.962;2022-08-21T04:37:49;5.42;;;4.87;;
73678;SDS011;61978;52.742;16.962;2022-08-21T04:40:16;5.53;;;4.97;;
73678;SDS011;61978;52.742;16.962;2022-08-21T04:42:49;5.37;;;4.83;;
73678;SDS011;61978;52.742;16.962;2022-08-21T04:45:19;3.47;;;3.27;;
73678;SDS011;61978;52.742;16.962;2022-08-21T04:52:55;4.90;;;3.37;;
73678;SDS011;61978;52.742;16.962;2022-08-21T04:55:22;7.67;;;4.42;;
73678;SDS011;61978;52.742;16.962;2022-08-21T04:57:53;6.60;;;4.70;;
73678;SDS011;61978;52.742;16.962;2022-08-21T05:00:22;6.00;;;5.40;;
73678;SDS011;61978;52.742;16.962;2022-08-21T05:02:50;6.97;;;4.65;;
73678;SDS011;61978;52.742;16.962;2022-08-21T05:05:20;4.90;;;3.62;;
73678;SDS011;61978;52.742;16.962;2022-08-21T05:07:47;3.85;;;3.45;;
73678;SDS011;61978;52.742;16.962;2022-08-21T05:10:15;4.15;;;3.22;;
73678;SDS011;61978;52.742;16.962;2022-08-21T05:12:42;4.15;;;3.75;;
73678;SDS011;61978;52.742;16.962;2022-08-21T05:15:11;4.17;;;3.40;;
73678;SDS011;61978;52.742;16.962;2022-08-21T05:17:38;7.83;;;3.60;;
73678;SDS011;61978;52.742;16.962;2022-08-21T05:20:07;4.22;;;3.37;;
73678;SDS011;61978;52.742;16.962;2022-08-21T05:22:34;3.10;;;2.80;;
73678;SDS011;61978;52.742;16.962;2022-08-21T05:25:00;4.80;;;4.40;;
73678;SDS011;61978;52.742;16.962;2022-08-21T05:27:27;6.20;;;4.20;;
73678;SDS011;61978;52.742;16.962;2022-08-21T05:29:55;5.08;;;4.58;;
73678;SDS011;61978;52.742;16.962;2022-08-21T05:32:22;4.67;;;4.10;;
73678;SDS011;61978;52.742;16.962;2022-08-21T05:34:49;4.17;;;3.70;;
73678;SDS011;61978;52.742;16.962;2022-08-21T05:37:16;5.97;;;3.92;;
73678;SDS011;61978;52.742;16.962;2022-08-21T05:39:43;4.35;;;3.60;;
73678;SDS011;61978;52.742;16.962;2022-08-21T05:42:09;5.78;;;4.55;;
73678;SDS011;61978;52.742;16.962;2022-08-21T05:44:35;5.03;;;4.53;;
73678;SDS011;61978;52.742;16.962;2022-08-21T05:47:07;6.40;;;5.17;;
73678;SDS011;61978;52.742;16.962;2022-08-21T05:49:32;7.37;;;5.25;;
73678;SDS011;61978;52.742;16.962;2022-08-21T05:51:59;7.33;;;4.87;;
73678;SDS011;61978;52.742;16.962;2022-08-21T05:54:26;6.10;;;4.80;;
73678;SDS011;61978;52.742;16.962;2022-08-21T05:56:52;4.90;;;4.40;;
73678;SDS011;61978;52.742;16.962;2022-08-21T05:59:19;4.00;;;3.60;;
73678;SDS011;61978;52.742;16.962;2022-08-21T06:01:46;4.42;;;3.92;;
73678;SDS011;61978;52.742;16.962;2022-08-21T06:04:13;5.15;;;4.47;;
73678;SDS011;61978;52.742;16.962;2022-08-21T06:06:40;12.30;;;5.37;;
73678;SDS011;61978;52.742;16.962;2022-08-21T06:09:06;6.00;;;5.15;;
73678;SDS011;61978;52.742;16.962;2022-08-21T06:11:34;8.10;;;5.53;;
73678;SDS011;61978;52.742;16.962;2022-08-21T06:14:00;7.85;;;5.47;;
73678;SDS011;61978;52.742;16.962;2022-08-21T06:16:27;6.87;;;5.10;;
73678;SDS011;61978;52.742;16.962;2022-08-21T06:18:54;6.40;;;5.03;;
73678;SDS011;61978;52.742;16.962;2022-08-21T06:21:21;6.17;;;5.08;;
73678;SDS011;61978;52.742;16.962;2022-08-21T06:23:47;9.73;;;5.70;;
73678;SDS011;61978;52.742;16.962;2022-08-21T06:26:15;6.28;;;4.95;;
73678;SDS011;61978;52.742;16.962;2022-08-21T06:28:42;6.25;;;4.87;;
73678;SDS011;61978;52.742;16.962;2022-08-21T06:31:13;6.85;;;5.10;;
73678;SDS011;61978;52.742;16.962;2022-08-21T06:33:43;6.15;;;4.65;;
73678;SDS011;61978;52.742;16.962;2022-08-21T06:36:10;5.95;;;4.20;;
73678;SDS011;61978;52.742;16.962;2022-08-21T06:38:37;4.00;;;3.45;;
73678;SDS011;61978;52.742;16.962;2022-08-21T06:41:05;6.08;;;4.50;;
73678;SDS011;61978;52.742;16.962;2022-08-21T06:43:33;6.72;;;3.45;;
73678;SDS011;61978;52.742;16.962;2022-08-21T06:45:59;7.00;;;4.78;;
73678;SDS011;61978;52.742;16.962;2022-08-21T06:48:26;6.72;;;4.05;;
73678;SDS011;61978;52.742;16.962;2022-08-21T06:50:52;4.65;;;4.25;;
73678;SDS011;61978;52.742;16.962;2022-08-21T06:53:19;4.97;;;4.45;;
73678;SDS011;61978;52.742;16.962;2022-08-21T06:55:49;4.70;;;3.65;;
73678;SDS011;61978;52.742;16.962;2022-08-21T06:58:15;4.22;;;3.83;;
73678;SDS011;61978;52.742;16.962;2022-08-21T07:00:43;5.15;;;3.60;;
73678;SDS011;61978;52.742;16.962;2022-08-21T07:03:23;4.50;;;4.00;;
73678;SDS011;61978;52.742;16.962;2022-08-21T07:05:44;4.60;;;4.20;;
73678;SDS011;61978;52.742;16.962;2022-08-21T07:08:11;4.80;;;4.22;;
73678;SDS011;61978;52.742;16.962;2022-08-21T07:10:37;4.75;;;4.25;;
73678;SDS011;61978;52.742;16.962;2022-08-21T07:13:04;5.22;;;4.50;;
73678;SDS011;61978;52.742;16.962;2022-08-21T07:15:31;4.40;;;4.00;;
73678;SDS011;61978;52.742;16.962;2022-08-21T07:17:59;5.33;;;3.95;;
73678;SDS011;61978;52.742;16.962;2022-08-21T07:20:27;4.47;;;4.08;;
73678;SDS011;61978;52.742;16.962;2022-08-21T07:23:03;4.42;;;4.03;;
73678;SDS011;61978;52.742;16.962;2022-08-21T07:25:32;3.98;;;3.58;;
73678;SDS011;61978;52.742;16.962;2022-08-21T07:27:59;3.83;;;3.50;;
73678;SDS011;61978;52.742;16.962;2022-08-21T07:30:25;4.22;;;3.52;;
73678;SDS011;61978;52.742;16.962;2022-08-21T07:32:53;4.25;;;3.85;;
73678;SDS011;61978;52.742;16.962;2022-08-21T07:35:20;4.37;;;3.98;;
73678;SDS011;61978;52.742;16.962;2022-08-21T07:37:48;3.85;;;3.55;;
73678;SDS011;61978;52.742;16.962;2022-08-21T07:40:15;4.10;;;3.70;;
73678;SDS011;61978;52.742;16.962;2022-08-21T07:42:43;6.47;;;3.40;;
73678;SDS011;61978;52.742;16.962;2022-08-21T07:45:11;4.42;;;4.03;;
73678;SDS011;61978;52.742;16.962;2022-08-21T07:47:39;4.97;;;3.58;;
73678;SDS011;61978;52.742;16.962;2022-08-21T07:50:07;3.55;;;3.25;;
73678;SDS011;61978;52.742;16.962;2022-08-21T07:52:34;4.87;;;3.77;;
73678;SDS011;61978;52.742;16.962;2022-08-21T07:55:01;5.40;;;3.50;;
73678;SDS011;61978;52.742;16.962;2022-08-21T07:57:27;6.40;;;4.08;;
73678;SDS011;61978;52.742;16.962;2022-08-21T07:59:54;4.92;;;3.65;;
73678;SDS011;61978;52.742;16.962;2022-08-21T08:02:28;6.28;;;3.27;;
73678;SDS011;61978;52.742;16.962;2022-08-21T08:05:01;4.83;;;3.40;;
73678;SDS011;61978;52.742;16.962;2022-08-21T08:07:29;4.63;;;3.50;;
73678;SDS011;61978;52.742;16.962;2022-08-21T08:09:56;4.28;;;3.75;;
73678;SDS011;61978;52.742;16.962;2022-08-21T08:12:24;4.10;;;3.60;;
73678;SDS011;61978;52.742;16.962;2022-08-21T08:14:52;3.62;;;3.27;;
73678;SDS011;61978;52.742;16.962;2022-08-21T08:17:18;6.45;;;3.90;;
73678;SDS011;61978;52.742;16.962;2022-08-21T08:19:47;6.08;;;4.15;;
73678;SDS011;61978;52.742;16.962;2022-08-21T08:22:15;4.85;;;3.25;;
73678;SDS011;61978;52.742;16.962;2022-08-21T08:24:45;3.45;;;3.12;;
73678;SDS011;61978;52.742;16.962;2022-08-21T08:27:13;3.72;;;2.92;;
73678;SDS011;61978;52.742;16.962;2022-08-21T08:29:40;5.50;;;3.50;;
73678;SDS011;61978;52.742;16.962;2022-08-21T08:32:08;5.40;;;3.75;;
73678;SDS011;61978;52.742;16.962;2022-08-21T08:34:35;4.22;;;3.45;;
73678;SDS011;61978;52.742;16.962;2022-08-21T08:37:05;6.78;;;3.60;;
73678;SDS011;61978;52.742;16.962;2022-08-21T08:39:35;5.28;;;3.85;;
73678;SDS011;61978;52.742;16.962;2022-08-21T08:42:13;6.67;;;3.55;;
73678;SDS011;61978;52.742;16.962;2022-08-21T08:44:46;3.50;;;3.20;;
73678;SDS011;61978;52.742;16.962;2022-08-21T08:47:13;4.35;;;3.92;;
73678;SDS011;61978;52.742;16.962;2022-08-21T08:49:46;4.87;;;3.40;;
73678;SDS011;61978;52.742;16.962;2022-08-21T08:52:29;3.90;;;2.87;;
73678;SDS011;61978;52.742;16.962;2022-08-21T08:57:32;4.62;;;3.70;;
73678;SDS011;61978;52.742;16.962;2022-08-21T09:00:01;4.83;;;3.72;;
73678;SDS011;61978;52.742;16.962;2022-08-21T09:02:33;4.28;;;3.85;;
73678;SDS011;61978;52.742;16.962;2022-08-21T09:05:00;6.83;;;3.98;;
73678;SDS011;61978;52.742;16.962;2022-08-21T09:10:19;5.20;;;4.10;;
73678;SDS011;61978;52.742;16.962;2022-08-21T09:15:54;3.47;;;2.95;;
73678;SDS011;61978;52.742;16.962;2022-08-21T09:21:16;5.10;;;3.80;;
73678;SDS011;61978;52.742;16.962;2022-08-21T09:26:31;3.52;;;3.22;;
73678;SDS011;61978;52.742;16.962;2022-08-21T09:29:17;3.67;;;3.37;;
73678;SDS011;61978;52.742;16.962;2022-08-21T09:31:47;4.95;;;3.10;;
73678;SDS011;61978;52.742;16.962;2022-08-21T09:34:23;3.80;;;2.92;;
73678;SDS011;61978;52.742;16.962;2022-08-21T09:36:45;4.30;;;3.37;;
73678;SDS011;61978;52.742;16.962;2022-08-21T09:41:55;6.10;;;3.00;;
73678;SDS011;61978;52.742;16.962;2022-08-21T09:44:24;3.30;;;3.00;;
73678;SDS011;61978;52.742;16.962;2022-08-21T09:46:53;5.70;;;3.20;;
73678;SDS011;61978;52.742;16.962;2022-08-21T09:49:29;4.12;;;2.62;;
73678;SDS011;61978;52.742;16.962;2022-08-21T09:51:57;3.58;;;3.20;;
73678;SDS011;61978;52.742;16.962;2022-08-21T09:54:29;3.40;;;3.10;;
73678;SDS011;61978;52.742;16.962;2022-08-21T09:56:59;4.05;;;3.00;;
73678;SDS011;61978;52.742;16.962;2022-08-21T09:59:46;4.35;;;3.27;;
73678;SDS011;61978;52.742;16.962;2022-08-21T10:05:16;4.90;;;3.30;;
73678;SDS011;61978;52.742;16.962;2022-08-21T10:07:45;4.05;;;3.75;;
73678;SDS011;61978;52.742;16.962;2022-08-21T10:10:21;5.72;;;3.90;;
73678;SDS011;61978;52.742;16.962;2022-08-21T10:12:56;7.62;;;3.55;;
73678;SDS011;61978;52.742;16.962;2022-08-21T10:18:20;3.50;;;3.20;;
73678;SDS011;61978;52.742;16.962;2022-08-21T10:29:31;5.53;;;3.77;;
73678;SDS011;61978;52.742;16.962;2022-08-21T10:32:05;5.47;;;4.10;;
73678;SDS011;61978;52.742;16.962;2022-08-21T10:34:55;4.87;;;3.42;;
73678;SDS011;61978;52.742;16.962;2022-08-21T10:40:55;4.10;;;3.70;;
73678;SDS011;61978;52.742;16.962;2022-08-21T10:45:36;3.47;;;3.12;;
73678;SDS011;61978;52.742;16.962;2022-08-21T10:48:21;3.40;;;3.10;;
73678;SDS011;61978;52.742;16.962;2022-08-21T10:51:04;5.00;;;3.62;;
73678;SDS011;61978;52.742;16.962;2022-08-21T10:53:51;4.08;;;3.67;;
73678;SDS011;61978;52.742;16.962;2022-08-21T10:56:30;3.45;;;3.00;;
73678;SDS011;61978;52.742;16.962;2022-08-21T11:01:57;3.77;;;3.47;;
73678;SDS011;61978;52.742;16.962;2022-08-21T11:04:49;4.05;;;3.40;;
73678;SDS011;61978;52.742;16.962;2022-08-21T11:07:32;3.62;;;3.33;;
73678;SDS011;61978;52.742;16.962;2022-08-21T11:09:57;3.67;;;3.37;;
73678;SDS011;61978;52.742;16.962;2022-08-21T11:12:41;3.85;;;3.47;;
73678;SDS011;61978;52.742;16.962;2022-08-21T11:21:37;3.65;;;3.22;;
73678;SDS011;61978;52.742;16.962;2022-08-21T11:23:28;4.90;;;3.20;;
73678;SDS011;61978;52.742;16.962;2022-08-21T11:25:55;2.83;;;2.52;;
73678;SDS011;61978;52.742;16.962;2022-08-21T11:39:59;3.47;;;2.30;;
73678;SDS011;61978;52.742;16.962;2022-08-21T11:45:52;3.55;;;1.95;;
73678;SDS011;61978;52.742;16.962;2022-08-21T11:51:04;2.27;;;1.85;;
73678;SDS011;61978;52.742;16.962;2022-08-21T11:53:36;2.37;;;2.02;;
73678;SDS011;61978;52.742;16.962;2022-08-21T11:58:38;5.00;;;2.58;;
73678;SDS011;61978;52.742;16.962;2022-08-21T12:01:11;3.02;;;2.40;;
73678;SDS011;61978;52.742;16.962;2022-08-21T12:03:42;4.20;;;2.58;;
73678;SDS011;61978;52.742;16.962;2022-08-21T12:06:12;3.05;;;2.58;;
73678;SDS011;61978;52.742;16.962;2022-08-21T12:08:41;3.35;;;2.50;;
73678;SDS011;61978;52.742;16.962;2022-08-21T12:13:57;6.50;;;2.33;;
73678;SDS011;61978;52.742;16.962;2022-08-21T12:16:33;5.85;;;2.37;;
73678;SDS011;61978;52.742;16.962;2022-08-21T12:19:05;5.65;;;2.35;;
73678;SDS011;61978;52.742;16.962;2022-08-21T12:21:58;5.40;;;2.87;;
73678;SDS011;61978;52.742;16.962;2022-08-21T12:24:42;3.27;;;2.50;;
73678;SDS011;61978;52.742;16.962;2022-08-21T12:27:40;3.52;;;2.40;;
73678;SDS011;61978;52.742;16.962;2022-08-21T12:30:03;2.00;;;1.67;;
73678;SDS011;61978;52.742;16.962;2022-08-21T12:35:17;4.62;;;2.08;;
73678;SDS011;61978;52.742;16.962;2022-08-21T12:37:47;4.87;;;2.20;;
73678;SDS011;61978;52.742;16.962;2022-08-21T12:42:50;2.95;;;2.25;;
73678;SDS011;61978;52.742;16.962;2022-08-21T12:45:26;6.25;;;2.75;;
73678;SDS011;61978;52.742;16.962;2022-08-21T12:48:06;5.42;;;2.92;;
73678;SDS011;61978;52.742;16.962;2022-08-21T12:50:36;3.77;;;2.25;;
73678;SDS011;61978;52.742;16.962;2022-08-21T12:53:15;4.20;;;1.92;;
73678;SDS011;61978;52.742;16.962;2022-08-21T12:55:41;3.15;;;2.10;;
73678;SDS011;61978;52.742;16.962;2022-08-21T13:00:52;4.65;;;2.35;;
73678;SDS011;61978;52.742;16.962;2022-08-21T13:03:21;2.75;;;2.00;;
73678;SDS011;61978;52.742;16.962;2022-08-21T13:05:49;2.77;;;1.80;;
73678;SDS011;61978;52.742;16.962;2022-08-21T13:08:17;3.47;;;1.85;;
73678;SDS011;61978;52.742;16.962;2022-08-21T13:10:48;4.80;;;1.80;;
73678;SDS011;61978;52.742;16.962;2022-08-21T13:13:18;3.40;;;1.90;;
73678;SDS011;61978;52.742;16.962;2022-08-21T13:15:49;3.80;;;2.47;;
73678;SDS011;61978;52.742;16.962;2022-08-21T13:18:21;3.25;;;1.57;;
73678;SDS011;61978;52.742;16.962;2022-08-21T13:20:50;4.58;;;1.62;;
73678;SDS011;61978;52.742;16.962;2022-08-21T13:23:23;3.90;;;2.08;;
73678;SDS011;61978;52.742;16.962;2022-08-21T13:25:48;3.37;;;2.45;;
73678;SDS011;61978;52.742;16.962;2022-08-21T13:28:15;2.47;;;2.20;;
73678;SDS011;61978;52.742;16.962;2022-08-21T13:30:43;7.58;;;2.58;;
73678;SDS011;61978;52.742;16.962;2022-08-21T13:33:12;5.37;;;2.60;;
73678;SDS011;61978;52.742;16.962;2022-08-21T13:35:48;3.10;;;2.40;;
73678;SDS011;61978;52.742;16.962;2022-08-21T13:38:19;3.80;;;2.55;;
73678;SDS011;61978;52.742;16.962;2022-08-21T13:43:32;3.22;;;2.10;;
73678;SDS011;61978;52.742;16.962;2022-08-21T13:46:07;5.78;;;2.20;;
73678;SDS011;61978;52.742;16.962;2022-08-21T13:48:47;3.30;;;1.82;;
73678;SDS011;61978;52.742;16.962;2022-08-21T13:51:15;4.03;;;1.87;;
73678;SDS011;61978;52.742;16.962;2022-08-21T13:53:45;3.02;;;2.67;;
73678;SDS011;61978;52.742;16.962;2022-08-21T13:56:23;5.17;;;2.33;;
73678;SDS011;61978;52.742;16.962;2022-08-21T13:58:58;4.22;;;2.33;;
73678;SDS011;61978;52.742;16.962;2022-08-21T14:04:04;2.42;;;2.10;;
73678;SDS011;61978;52.742;16.962;2022-08-21T14:06:36;2.42;;;2.20;;
73678;SDS011;61978;52.742;16.962;2022-08-21T14:09:11;4.30;;;2.25;;
73678;SDS011;61978;52.742;16.962;2022-08-21T14:11:41;3.17;;;2.25;;
73678;SDS011;61978;52.742;16.962;2022-08-21T14:16:55;2.37;;;2.17;;
73678;SDS011;61978;52.742;16.962;2022-08-21T14:19:41;3.70;;;2.13;;
73678;SDS011;61978;52.742;16.962;2022-08-21T14:25:01;3.77;;;2.17;;
73678;SDS011;61978;52.742;16.962;2022-08-21T14:27:30;1.90;;;1.55;;
73678;SDS011;61978;52.742;16.962;2022-08-21T14:30:03;4.72;;;2.10;;
73678;SDS011;61978;52.742;16.962;2022-08-21T14:35:00;3.80;;;2.05;;
73678;SDS011;61978;52.742;16.962;2022-08-21T14:37:27;4.30;;;2.20;;
73678;SDS011;61978;52.742;16.962;2022-08-21T14:39:55;5.42;;;2.22;;
73678;SDS011;61978;52.742;16.962;2022-08-21T14:42:24;5.95;;;2.47;;
73678;SDS011;61978;52.742;16.962;2022-08-21T14:44:51;4.87;;;2.20;;
73678;SDS011;61978;52.742;16.962;2022-08-21T14:47:21;5.58;;;2.20;;
73678;SDS011;61978;52.742;16.962;2022-08-21T14:49:49;3.50;;;2.12;;
73678;SDS011;61978;52.742;16.962;2022-08-21T14:52:21;3.45;;;2.75;;
73678;SDS011;61978;52.742;16.962;2022-08-21T14:54:55;7.97;;;2.80;;
73678;SDS011;61978;52.742;16.962;2022-08-21T14:57:23;2.95;;;2.08;;
73678;SDS011;61978;52.742;16.962;2022-08-21T14:59:53;3.35;;;1.85;;
73678;SDS011;61978;52.742;16.962;2022-08-21T15:02:21;2.85;;;2.27;;
73678;SDS011;61978;52.742;16.962;2022-08-21T15:04:47;4.67;;;2.47;;
73678;SDS011;61978;52.742;16.962;2022-08-21T15:07:14;4.97;;;2.42;;
73678;SDS011;61978;52.742;16.962;2022-08-21T15:09:40;5.67;;;2.20;;
73678;SDS011;61978;52.742;16.962;2022-08-21T15:12:07;5.53;;;2.87;;
73678;SDS011;61978;52.742;16.962;2022-08-21T15:14:36;4.83;;;2.40;;
73678;SDS011;61978;52.742;16.962;2022-08-21T15:17:09;3.33;;;1.98;;
73678;SDS011;61978;52.742;16.962;2022-08-21T15:19:38;3.90;;;2.20;;
73678;SDS011;61978;52.742;16.962;2022-08-21T15:22:05;3.92;;;2.10;;
73678;SDS011;61978;52.742;16.962;2022-08-21T15:24:31;5.55;;;2.30;;
73678;SDS011;61978;52.742;16.962;2022-08-21T15:26:59;5.92;;;2.45;;
73678;SDS011;61978;52.742;16.962;2022-08-21T15:29:28;5.00;;;2.60;;
73678;SDS011;61978;52.742;16.962;2022-08-21T15:31:57;5.67;;;2.85;;
73678;SDS011;61978;52.742;16.962;2022-08-21T15:34:30;3.92;;;2.17;;
73678;SDS011;61978;52.742;16.962;2022-08-21T15:36:57;7.45;;;2.20;;
73678;SDS011;61978;52.742;16.962;2022-08-21T15:39:24;7.40;;;2.83;;
73678;SDS011;61978;52.742;16.962;2022-08-21T15:41:52;5.10;;;2.42;;
73678;SDS011;61978;52.742;16.962;2022-08-21T15:44:18;6.78;;;2.90;;
73678;SDS011;61978;52.742;16.962;2022-08-21T15:46:46;4.70;;;2.67;;
73678;SDS011;61978;52.742;16.962;2022-08-21T15:49:13;3.75;;;2.27;;
73678;SDS011;61978;52.742;16.962;2022-08-21T15:51:39;10.28;;;2.67;;
73678;SDS011;61978;52.742;16.962;2022-08-21T15:54:06;3.62;;;2.67;;
73678;SDS011;61978;52.742;16.962;2022-08-21T15:56:34;5.40;;;3.22;;
73678;SDS011;61978;52.742;16.962;2022-08-21T15:59:12;5.37;;;2.60;;
73678;SDS011;61978;52.742;16.962;2022-08-21T16:01:37;5.60;;;2.80;;
73678;SDS011;61978;52.742;16.962;2022-08-21T16:04:04;5.17;;;2.77;;
73678;SDS011;61978;52.742;16.962;2022-08-21T16:06:32;11.55;;;3.60;;
73678;SDS011;61978;52.742;16.962;2022-08-21T16:08:59;7.90;;;3.72;;
73678;SDS011;61978;52.742;16.962;2022-08-21T16:11:27;9.40;;;3.77;;
73678;SDS011;61978;52.742;16.962;2022-08-21T16:13:53;7.67;;;3.47;;
73678;SDS011;61978;52.742;16.962;2022-08-21T16:16:21;8.15;;;3.25;;
73678;SDS011;61978;52.742;16.962;2022-08-21T16:18:49;5.08;;;3.45;;
73678;SDS011;61978;52.742;16.962;2022-08-21T16:21:19;6.28;;;3.87;;